Time;durP1;ratioP1;P1;durP2;ratioP2;P2;SDS_P1;SDS_P2;PMS_P1;PMS_P2;Temp;Humidity;BMP_temperature;BMP_pressure;BME280_temperature;BME280_humidity;BME280_pressure;Samples;Min_cycle;Max_cycle;Signal;HPM_P1;HPM_P2
2022/11/05 00:10:20;;;;;;;30.00;19.63;;;;;;;13.31;96.34;92707.22;5091384;28;20114;-74
2022/11/05 00:18:17;;;;;;;27.48;18.48;;;;;;;13.10;96.83;92683.75;5091234;28;20423;-75
2022/11/05 00:20:43;;;;;;;31.00;19.17;;;;;;;13.24;95.97;92706.59;5091151;28;20086;-75
2022/11/05 00:25:56;;;;;;;29.98;17.88;;;;;;;13.17;96.04;92701.63;5090786;28;20055;-75
2022/11/05 00:28:23;;;;;;;26.90;17.58;;;;;;;13.25;96.35;92708.19;5091498;28;20056;-75
2022/11/05 00:30:51;;;;;;;31.15;16.90;;;;;;;13.14;97.24;92688.44;5091291;28;20754;-75
2022/11/05 00:33:18;;;;;;;29.08;18.35;;;;;;;13.19;96.87;92691.84;5090700;28;20052;-75
2022/11/05 00:35:46;;;;;;;25.38;17.33;;;;;;;13.08;95.89;92690.16;5091561;28;20385;-75
2022/11/05 00:38:13;;;;;;;23.60;15.75;;;;;;;13.07;94.98;92697.13;5091545;28;20040;-77
2022/11/05 00:40:40;;;;;;;25.73;15.50;;;;;;;13.11;94.45;92692.28;5091439;28;20121;-75
2022/11/05 00:45:52;;;;;;;22.38;14.50;;;;;;;13.09;93.38;92689.13;5090718;28;20066;-75
2022/11/05 00:51:03;;;;;;;24.25;14.90;;;;;;;13.08;96.10;92682.41;5090887;28;20201;-75
2022/11/05 00:53:29;;;;;;;24.85;16.50;;;;;;;13.10;96.81;92678.59;5091005;28;20074;-74
2022/11/05 00:55:56;;;;;;;23.33;15.27;;;;;;;13.09;97.44;92669.31;5091143;28;20097;-75
2022/11/05 00:58:23;;;;;;;24.30;14.73;;;;;;;13.15;96.76;92667.56;5090863;28;20101;-75
2022/11/05 01:00:53;;;;;;;23.48;15.57;;;;;;;13.18;96.93;92666.28;5091090;28;20450;-74
2022/11/05 01:03:22;;;;;;;22.15;14.82;;;;;;;13.07;99.22;92648.16;5090826;28;20077;-75
2022/11/05 01:05:50;;;;;;;24.90;15.23;;;;;;;12.94;100.00;92620.91;5090716;28;20097;-75
2022/11/05 01:08:19;;;;;;;26.08;16.30;;;;;;;13.09;100.00;92656.41;5090716;28;20048;-75
2022/11/05 01:10:47;;;;;;;27.48;15.23;;;;;;;13.13;100.00;92650.75;5090837;28;20434;-74
2022/11/05 01:13:17;;;;;;;23.75;15.07;;;;;;;13.12;100.00;92644.84;5090570;28;20056;-75
2022/11/05 01:15:44;;;;;;;22.30;15.50;;;;;;;13.13;100.00;92640.44;5090326;28;20070;-75
2022/11/05 01:18:12;;;;;;;24.92;16.08;;;;;;;13.04;100.00;92632.34;5090679;28;20055;-75
2022/11/05 01:20:39;;;;;;;20.55;14.27;;;;;;;13.14;100.00;92639.44;5090437;28;20062;-75
2022/11/05 01:23:06;;;;;;;26.35;16.08;;;;;;;13.07;100.00;92626.72;5090153;28;20054;-75
2022/11/05 01:25:32;;;;;;;25.88;15.43;;;;;;;13.07;100.00;92635.25;5090390;28;20097;-74
2022/11/05 01:27:59;;;;;;;21.98;14.77;;;;;;;13.06;100.00;92620.00;5090600;28;20526;-76
2022/11/05 01:30:26;;;;;;;23.58;15.80;;;;;;;13.05;100.00;92608.91;5090157;28;20496;-74
2022/11/05 01:32:52;;;;;;;26.63;15.70;;;;;;;13.00;100.00;92590.78;5090339;28;20101;-74
2022/11/05 01:35:21;;;;;;;26.77;17.83;;;;;;;12.95;100.00;92608.78;5089712;28;20048;-74
2022/11/05 01:37:48;;;;;;;25.73;16.73;;;;;;;12.84;100.00;92605.31;5090157;28;20047;-74
2022/11/05 01:40:18;;;;;;;28.38;17.42;;;;;;;12.97;100.00;92599.03;5089960;28;20052;-74
2022/11/05 01:42:46;;;;;;;31.20;15.90;;;;;;;12.92;100.00;92606.69;5089944;28;20565;-75
2022/11/05 01:56:52;;;;;;;23.13;14.73;;;;;;;13.45;100.00;92594.13;5104044;27;1332182;-74
2022/11/05 01:59:25;;;;;;;22.48;15.32;;;;;;;13.28;100.00;92586.47;5127741;28;20059;-76
2022/11/05 02:01:53;;;;;;;25.77;16.15;;;;;;;13.11;100.00;92576.25;5127642;28;20064;-76
2022/11/05 02:04:26;;;;;;;24.00;16.60;;;;;;;13.04;100.00;92578.19;5127499;27;20069;-77
2022/11/05 02:06:53;;;;;;;20.38;15.73;;;;;;;12.75;100.00;92548.25;5127555;28;20171;-74
2022/11/05 02:09:25;;;;;;;27.30;16.33;;;;;;;12.86;100.00;92574.16;5127580;28;20096;-73
2022/11/05 02:11:53;;;;;;;28.40;14.90;;;;;;;12.66;100.00;92544.50;5127661;28;20536;-75
2022/11/05 02:14:20;;;;;;;27.35;17.17;;;;;;;12.82;100.00;92561.72;5127442;28;20100;-75
2022/11/05 02:16:50;;;;;;;24.90;16.42;;;;;;;12.69;100.00;92552.53;5127124;27;20043;-73
2022/11/05 02:19:56;;;;;;;30.73;17.30;;;;;;;12.52;100.00;92550.03;5127303;28;20101;-73
2022/11/05 02:23:01;;;;;;;26.38;16.67;;;;;;;12.71;100.00;92580.66;5127541;27;20434;-73
2022/11/05 02:25:57;;;;;;;20.35;14.55;;;;;;;12.58;100.00;92581.75;5116973;28;20120;-73
2022/11/05 02:28:42;;;;;;;25.65;15.57;;;;;;;12.54;100.00;92584.03;5127215;27;20097;-73
2022/11/05 02:31:19;;;;;;;24.63;16.25;;;;;;;12.58;100.00;92581.00;5127179;27;20484;-73
2022/11/05 02:33:55;;;;;;;22.23;15.68;;;;;;;12.56;100.00;92583.81;5126772;27;20047;-73
2022/11/05 02:36:38;;;;;;;23.48;15.00;;;;;;;12.58;100.00;92579.19;5126734;28;20051;-73
2022/11/05 02:39:22;;;;;;;22.00;15.35;;;;;;;12.62;100.00;92582.06;5126986;27;20051;-73
2022/11/05 02:41:57;;;;;;;24.75;15.93;;;;;;;12.59;100.00;92577.41;5127033;27;20055;-75
2022/11/05 02:44:34;;;;;;;25.90;15.43;;;;;;;12.44;100.00;92550.41;5126458;27;20508;-73
2022/11/05 02:47:07;;;;;;;22.05;14.85;;;;;;;12.50;100.00;92571.88;5126916;27;20047;-73
2022/11/05 02:49:41;;;;;;;21.10;15.25;;;;;;;12.59;100.00;92588.47;5126538;27;20052;-73
2022/11/05 02:52:15;;;;;;;21.73;14.52;;;;;;;12.61;100.00;92595.97;5126328;28;20043;-73
2022/11/05 02:54:45;;;;;;;21.90;14.95;;;;;;;12.45;100.00;92572.56;5102322;28;20048;-74
2022/11/05 02:57:12;;;;;;;22.08;14.95;;;;;;;12.61;100.00;92585.66;5112865;28;20052;-75
2022/11/05 02:59:39;;;;;;;24.35;16.02;;;;;;;12.56;100.00;92574.28;5102315;28;20051;-74
2022/11/05 03:02:07;;;;;;;23.90;15.90;;;;;;;12.54;100.00;92567.78;5109327;28;20489;-74
2022/11/05 03:04:34;;;;;;;26.83;14.68;;;;;;;12.54;100.00;92565.22;5112860;28;20047;-74
2022/11/05 03:07:28;;;;;;;22.48;15.40;;;;;;;12.48;100.00;92564.38;5112592;28;20105;-73
2022/11/05 03:10:17;;;;;;;24.67;15.38;;;;;;;12.40;100.00;92559.63;5112675;27;20048;-73
2022/11/05 03:12:57;;;;;;;22.40;14.25;;;;;;;12.51;100.00;92574.19;5112410;28;20500;-73
2022/11/05 03:15:38;;;;;;;22.23;15.25;;;;;;;12.52;100.00;92575.78;5112429;28;20138;-73
2022/11/05 03:18:13;;;;;;;21.05;14.77;;;;;;;12.54;100.00;92572.94;5112267;28;20096;-72
2022/11/05 03:20:46;;;;;;;23.13;15.17;;;;;;;12.63;100.00;92586.22;5112210;28;20051;-72
2022/11/05 03:23:21;;;;;;;18.35;13.30;;;;;;;12.66;100.00;92596.03;5112651;28;20280;-74
2022/11/05 03:25:52;;;;;;;24.17;15.27;;;;;;;12.61;100.00;92583.88;5112108;28;20052;-74
2022/11/05 03:28:23;;;;;;;20.67;14.75;;;;;;;12.73;100.00;92601.03;5112580;28;20044;-73
2022/11/05 03:30:52;;;;;;;26.38;13.88;;;;;;;12.75;100.00;92604.16;5112034;28;20051;-73
2022/11/05 03:33:23;;;;;;;26.30;14.88;;;;;;;12.78;100.00;92601.88;5112396;28;20052;-73
2022/11/05 03:35:53;;;;;;;21.05;13.13;;;;;;;12.61;100.00;92575.38;5112010;28;20059;-73
2022/11/05 03:38:24;;;;;;;25.67;14.75;;;;;;;12.81;100.00;92616.06;5112089;28;20568;-73
2022/11/05 03:40:55;;;;;;;19.83;13.07;;;;;;;12.79;100.00;92631.00;5112064;28;20092;-73
2022/11/05 03:43:33;;;;;;;22.33;14.05;;;;;;;12.60;99.71;92609.88;5111986;28;20047;-73
2022/11/05 03:46:04;;;;;;;19.75;12.35;;;;;;;12.66;99.33;92632.91;5111386;28;20051;-73
2022/11/05 03:48:38;;;;;;;19.55;12.85;;;;;;;12.59;99.31;92628.94;5112107;27;20100;-74
2022/11/05 03:51:12;;;;;;;18.38;11.95;;;;;;;12.54;99.99;92635.56;5111957;28;20051;-74
2022/11/05 03:53:46;;;;;;;22.00;13.63;;;;;;;12.47;100.00;92637.53;5105748;28;20098;-73
2022/11/05 03:56:26;;;;;;;18.33;12.98;;;;;;;12.47;100.00;92641.88;5091810;28;20073;-72
2022/11/05 03:58:55;;;;;;;21.85;13.27;;;;;;;12.46;99.81;92656.59;5097273;28;20044;-72
2022/11/05 04:01:21;;;;;;;19.02;12.88;;;;;;;12.43;99.79;92652.69;5111590;28;20466;-72
2022/11/05 04:03:49;;;;;;;18.45;13.05;;;;;;;12.37;100.00;92653.59;5111328;28;20051;-73
2022/11/05 04:14:28;;;;;;;18.27;12.70;;;;;;;12.13;100.00;92640.88;5111286;28;20058;-75
2022/11/05 04:17:08;;;;;;;23.60;13.23;;;;;;;12.14;100.00;92651.97;5111567;28;20124;-74
2022/11/05 04:25:21;;;;;;;19.05;10.80;;;;;;;12.07;98.49;92657.25;5047509;28;20071;-74
2022/11/05 04:27:48;;;;;;;15.60;10.63;;;;;;;12.11;97.95;92668.66;5047850;28;20037;-73
2022/11/05 04:30:20;;;;;;;17.63;11.55;;;;;;;12.11;99.13;92657.56;5076142;28;20051;-73
2022/11/05 04:33:01;;;;;;;18.50;12.13;;;;;;;12.13;99.05;92668.41;5110195;28;20046;-73
2022/11/05 04:35:31;;;;;;;17.83;11.73;;;;;;;12.13;98.98;92664.03;5111301;28;20055;-74
2022/11/05 04:37:58;;;;;;;19.35;11.90;;;;;;;12.18;99.36;92663.34;5111071;28;20454;-74
2022/11/05 04:40:26;;;;;;;16.88;12.18;;;;;;;12.22;98.95;92659.28;5110895;28;20048;-73
2022/11/05 04:42:55;;;;;;;19.85;12.07;;;;;;;12.15;98.71;92654.31;5110596;28;20101;-75
2022/11/05 04:45:23;;;;;;;20.38;12.88;;;;;;;12.08;98.52;92650.31;5106299;28;20135;-75
2022/11/05 04:47:50;;;;;;;18.08;12.82;;;;;;;12.19;99.09;92664.91;5095965;28;20127;-76
2022/11/05 04:50:17;;;;;;;18.13;13.23;;;;;;;12.21;99.40;92668.03;5108747;28;20465;-75
2022/11/05 04:52:45;;;;;;;18.00;12.52;;;;;;;12.19;99.63;92664.13;5093418;28;20044;-76
2022/11/05 04:55:12;;;;;;;20.70;13.48;;;;;;;12.12;99.20;92652.19;5079160;28;20052;-77
2022/11/05 04:57:39;;;;;;;20.10;12.90;;;;;;;12.21;100.00;92662.13;5074766;28;20043;-76
2022/11/05 05:00:07;;;;;;;18.95;13.05;;;;;;;12.19;100.00;92664.13;5089348;28;20040;-75
2022/11/05 05:02:35;;;;;;;23.85;14.93;;;;;;;12.19;100.00;92658.97;5091384;28;20068;-75
2022/11/05 05:05:02;;;;;;;19.90;14.68;;;;;;;12.09;100.00;92657.03;5110592;28;20060;-75
2022/11/05 05:07:28;;;;;;;23.65;14.63;;;;;;;12.11;100.00;92657.56;5081739;28;20051;-75
2022/11/05 05:09:56;;;;;;;24.50;15.43;;;;;;;12.14;100.00;92668.16;5110529;28;20055;-75
2022/11/05 05:12:23;;;;;;;21.65;13.98;;;;;;;12.11;100.00;92673.78;5089692;28;20060;-76
2022/11/05 05:14:50;;;;;;;19.38;12.85;;;;;;;12.01;100.00;92663.28;5106601;28;20052;-76
2022/11/05 05:17:17;;;;;;;21.95;13.88;;;;;;;12.08;100.00;92673.47;5081675;28;20047;-77
2022/11/05 05:22:29;;;;;;;20.02;13.00;;;;;;;11.97;100.00;92669.91;5081427;28;20139;-77
2022/11/05 05:24:58;;;;;;;23.63;13.05;;;;;;;12.03;100.00;92681.84;5110473;28;20459;-77
2022/11/05 05:27:29;;;;;;;20.02;12.60;;;;;;;12.09;100.00;92688.69;5109959;28;20047;-75
2022/11/05 05:29:59;;;;;;;20.05;12.77;;;;;;;12.00;98.78;92675.38;5110196;28;20073;-74
2022/11/05 05:32:27;;;;;;;17.85;11.25;;;;;;;12.19;98.35;92697.59;5109696;28;20070;-74
2022/11/05 05:34:53;;;;;;;16.30;11.32;;;;;;;12.21;97.22;92698.16;5109938;28;20133;-74
2022/11/05 05:37:23;;;;;;;20.67;10.63;;;;;;;12.18;96.08;92694.25;5094983;28;20053;-74
2022/11/05 05:39:57;;;;;;;20.58;11.23;;;;;;;11.94;95.77;92665.25;5096860;28;20051;-75
2022/11/05 05:42:24;;;;;;;17.52;11.05;;;;;;;12.18;95.94;92699.41;5105700;28;20723;-73
2022/11/05 05:44:51;;;;;;;16.58;10.27;;;;;;;12.19;94.72;92698.38;5092821;28;20052;-74
2022/11/05 05:47:17;;;;;;;18.90;11.02;;;;;;;12.24;94.63;92706.19;5087144;28;20102;-75
2022/11/05 05:49:44;;;;;;;13.48;10.02;;;;;;;12.24;93.91;92703.63;5095702;28;20051;-75
2022/11/05 05:52:11;;;;;;;14.75;10.10;;;;;;;12.25;92.04;92704.38;5109941;28;20097;-75
2022/11/05 05:54:37;;;;;;;14.43;9.77;;;;;;;12.25;92.13;92701.81;5085444;28;20052;-74
2022/11/05 05:57:05;;;;;;;21.83;8.80;;;;;;;12.30;90.45;92709.63;5104167;28;20500;-76
2022/11/05 05:59:32;;;;;;;12.88;8.45;;;;;;;12.35;88.88;92714.88;5109947;28;20059;-74
2022/11/05 06:01:59;;;;;;;15.38;9.30;;;;;;;12.36;88.26;92700.97;5109572;28;20039;-74
2022/11/05 06:04:26;;;;;;;13.32;9.05;;;;;;;12.40;88.80;92699.50;5109831;28;20059;-74
2022/11/05 06:06:53;;;;;;;16.35;8.75;;;;;;;12.31;87.98;92674.38;5109839;28;20044;-74
2022/11/05 06:09:20;;;;;;;15.98;10.05;;;;;;;12.60;87.38;92711.16;5081722;28;20096;-75
2022/11/05 06:11:47;;;;;;;18.98;10.35;;;;;;;12.67;87.37;92719.50;5094803;28;20056;-74
2022/11/05 06:14:15;;;;;;;16.10;10.27;;;;;;;12.70;86.94;92711.28;5100316;28;20462;-74
2022/11/05 06:16:42;;;;;;;17.98;10.60;;;;;;;12.79;86.44;92714.28;5109623;28;20070;-73
2022/11/05 06:19:09;;;;;;;19.67;9.32;;;;;;;12.88;86.90;92709.50;5109353;28;20083;-75
2022/11/05 06:21:36;;;;;;;16.58;10.10;;;;;;;12.95;85.66;92706.75;5109518;28;20100;-75
2022/11/05 06:24:03;;;;;;;15.93;10.15;;;;;;;12.95;86.02;92712.69;5109831;28;20104;-75
2022/11/05 06:26:30;;;;;;;16.45;9.10;;;;;;;13.02;86.28;92704.78;5109534;28;20443;-75
2022/11/05 06:28:57;;;;;;;16.15;10.00;;;;;;;13.03;86.60;92708.13;5109447;28;20504;-75
2022/11/05 06:31:25;;;;;;;17.17;9.63;;;;;;;13.11;85.76;92710.31;5099087;28;20550;-74
2022/11/05 06:33:52;;;;;;;14.77;8.95;;;;;;;13.20;84.73;92706.31;5083043;28;20110;-75
2022/11/05 06:36:20;;;;;;;15.80;8.82;;;;;;;13.23;83.81;92697.31;5091831;28;20051;-74
2022/11/05 06:38:47;;;;;;;14.65;7.95;;;;;;;13.40;82.81;92715.34;5113320;28;20044;-74
2022/11/05 06:41:14;;;;;;;14.07;9.07;;;;;;;13.46;82.33;92701.50;5113447;27;20052;-74
2022/11/05 06:43:40;;;;;;;15.15;8.75;;;;;;;13.64;80.94;92699.63;5112972;28;20105;-74
2022/11/05 06:46:07;;;;;;;13.93;8.63;;;;;;;13.81;80.06;92703.94;5103429;28;20092;-74
2022/11/05 06:48:36;;;;;;;14.30;8.60;;;;;;;13.96;77.73;92701.53;5113311;28;20052;-74
2022/11/05 06:51:06;;;;;;;15.00;8.18;;;;;;;14.05;77.55;92698.50;5113081;28;20089;-75
2022/11/05 06:53:34;;;;;;;30.88;11.27;;;;;;;14.22;75.69;92690.66;5108358;28;20047;-74
2022/11/05 06:56:07;;;;;;;12.35;7.43;;;;;;;14.47;70.87;92697.84;5072186;28;20052;-73
2022/11/05 06:58:35;;;;;;;12.27;7.30;;;;;;;14.41;73.62;92673.75;5085591;28;20055;-73
2022/11/05 07:01:02;;;;;;;15.10;8.55;;;;;;;14.69;72.76;92695.16;5113087;28;20058;-73
2022/11/05 07:03:29;;;;;;;12.48;7.22;;;;;;;14.82;71.49;92691.41;5112622;28;20043;-73
2022/11/05 07:05:59;;;;;;;13.02;7.18;;;;;;;14.85;70.52;92691.97;5112895;28;20135;-74
2022/11/05 07:08:26;;;;;;;16.85;7.68;;;;;;;14.92;69.72;92693.31;5112529;28;20546;-73
2022/11/05 07:10:53;;;;;;;20.40;8.65;;;;;;;15.07;68.54;92686.66;5112474;28;20051;-74
2022/11/05 07:13:19;;;;;;;10.18;6.65;;;;;;;15.05;67.25;92678.38;5112952;28;20056;-74
2022/11/05 07:15:46;;;;;;;14.52;8.20;;;;;;;15.22;67.54;92671.22;5107598;28;20047;-75
2022/11/05 07:18:16;;;;;;;12.18;6.97;;;;;;;15.29;66.11;92665.03;5088770;28;20052;-75
2022/11/05 07:20:42;;;;;;;14.95;6.82;;;;;;;15.45;66.15;92689.16;5112439;28;20047;-74
2022/11/05 07:23:13;;;;;;;13.55;7.70;;;;;;;15.67;67.11;92688.22;5112671;28;20040;-74
2022/11/05 07:25:41;;;;;;;15.63;7.18;;;;;;;15.83;65.17;92689.81;5112222;28;20051;-75
2022/11/05 07:28:11;;;;;;;11.27;6.68;;;;;;;15.64;63.82;92671.38;5083583;28;20039;-75
2022/11/05 07:30:38;;;;;;;13.75;7.40;;;;;;;15.69;63.87;92676.56;5112191;28;20060;-73
2022/11/05 07:33:04;;;;;;;13.02;7.07;;;;;;;15.79;64.21;92669.88;5112110;28;20047;-74
2022/11/05 07:35:34;;;;;;;11.35;6.00;;;;;;;15.85;63.22;92671.44;5112361;28;20047;-74
2022/11/05 07:38:01;;;;;;;13.35;6.57;;;;;;;16.11;63.04;92687.84;5095912;28;20053;-74
2022/11/05 07:40:30;;;;;;;13.90;6.35;;;;;;;16.20;61.95;92672.56;5088312;28;20055;-76
2022/11/05 07:42:58;;;;;;;15.02;6.22;;;;;;;16.37;61.68;92680.09;5112022;28;20097;-75
2022/11/05 07:45:27;;;;;;;12.88;6.45;;;;;;;16.56;60.53;92687.34;5108925;28;20047;-76
2022/11/05 07:47:56;;;;;;;13.15;7.70;;;;;;;16.67;60.53;92664.81;5112042;28;20100;-75
2022/11/05 07:50:25;;;;;;;11.07;7.05;;;;;;;16.96;60.04;92680.56;5112293;28;20052;-75
2022/11/05 07:53:01;;;;;;;12.63;6.15;;;;;;;17.12;58.88;92680.56;5111715;28;20557;-75
2022/11/05 07:55:29;;;;;;;12.82;6.40;;;;;;;17.36;58.33;92682.63;5082850;28;20078;-76
2022/11/05 07:57:56;;;;;;;16.95;7.03;;;;;;;17.51;57.57;92681.78;5111877;28;20052;-76
2022/11/05 08:00:24;;;;;;;13.32;6.10;;;;;;;17.52;56.87;92670.34;5071077;28;20059;-76
2022/11/05 08:03:00;;;;;;;14.05;6.57;;;;;;;17.65;57.20;92688.97;5077473;28;20097;-76
2022/11/05 08:05:27;;;;;;;13.30;7.22;;;;;;;17.70;57.05;92668.19;5111515;28;20051;-75
2022/11/05 08:07:54;;;;;;;12.50;6.43;;;;;;;17.92;56.68;92680.81;5111361;28;20478;-76
2022/11/05 08:10:21;;;;;;;11.88;6.63;;;;;;;18.09;55.91;92675.28;5111359;28;20144;-76
2022/11/05 08:12:50;;;;;;;14.82;6.50;;;;;;;18.29;54.92;92679.56;5112008;28;20101;-75
2022/11/05 08:15:16;;;;;;;13.57;6.82;;;;;;;18.44;53.89;92677.91;5111385;28;20052;-76
2022/11/05 08:17:44;;;;;;;10.63;5.50;;;;;;;18.64;53.21;92689.19;5111295;28;20052;-76
2022/11/05 08:20:11;;;;;;;8.50;4.53;;;;;;;18.74;50.94;92676.13;5110969;28;20134;-76
2022/11/05 08:22:42;;;;;;;14.32;5.13;;;;;;;18.73;50.92;92671.19;5111002;28;20093;-75
2022/11/05 08:25:09;;;;;;;11.02;5.78;;;;;;;18.80;50.77;92679.47;5110927;28;20526;-75
2022/11/05 08:27:36;;;;;;;11.07;6.63;;;;;;;18.69;51.35;92674.34;5111284;28;20048;-75
2022/11/05 08:30:06;;;;;;;11.15;6.20;;;;;;;18.54;52.01;92666.66;5111154;28;20050;-76
2022/11/05 08:32:33;;;;;;;18.80;7.22;;;;;;;18.61;51.55;92690.53;5110855;28;20496;-75
2022/11/05 08:35:00;;;;;;;13.07;6.45;;;;;;;18.53;52.12;92685.91;5111109;28;20561;-75
2022/11/05 08:37:27;;;;;;;14.82;6.55;;;;;;;18.30;53.05;92695.97;5110881;28;20085;-75
2022/11/05 08:39:54;;;;;;;13.48;6.95;;;;;;;18.28;53.36;92693.63;5111084;28;20134;-75
2022/11/05 08:42:20;;;;;;;10.57;6.32;;;;;;;18.24;53.12;92684.03;5111131;28;20164;-76
2022/11/05 08:44:47;;;;;;;12.07;6.85;;;;;;;18.13;54.48;92686.69;5105235;28;20086;-76
2022/11/05 08:47:15;;;;;;;11.63;6.30;;;;;;;17.88;55.38;92692.78;5109175;28;20047;-75
2022/11/05 08:49:42;;;;;;;17.92;7.03;;;;;;;17.89;55.13;92669.13;5110978;28;20066;-75
2022/11/05 08:52:09;;;;;;;26.90;8.68;;;;;;;17.97;55.27;92685.19;5110885;28;20097;-76
2022/11/05 08:54:36;;;;;;;15.93;7.53;;;;;;;17.86;55.13;92682.66;5088387;28;20052;-76
2022/11/05 08:57:06;;;;;;;12.35;7.15;;;;;;;17.57;55.54;92683.31;5104873;28;20044;-75
2022/11/05 08:59:32;;;;;;;15.05;8.25;;;;;;;17.66;55.78;92680.94;5110438;28;20420;-76
2022/11/05 09:01:59;;;;;;;17.17;7.70;;;;;;;17.74;55.56;92680.38;5081773;28;20102;-75
2022/11/05 09:04:27;;;;;;;12.27;6.15;;;;;;;17.43;55.96;92675.31;5108057;28;20056;-75
2022/11/05 09:06:54;;;;;;;16.67;7.07;;;;;;;17.26;55.85;92667.06;5110301;28;20097;-75
2022/11/05 09:09:21;;;;;;;14.00;7.13;;;;;;;17.35;55.47;92683.63;5110612;28;20043;-75
2022/11/05 09:11:47;;;;;;;14.23;6.53;;;;;;;17.25;56.06;92666.28;5110101;28;20077;-75
2022/11/05 09:14:14;;;;;;;14.77;6.45;;;;;;;17.27;55.51;92671.97;5110479;28;20047;-76
2022/11/05 09:16:42;;;;;;;11.80;6.63;;;;;;;17.24;55.53;92677.69;5110830;28;20117;-76
2022/11/05 09:19:09;;;;;;;9.88;5.90;;;;;;;17.28;55.29;92677.94;5110504;28;20055;-75
2022/11/05 09:21:37;;;;;;;14.13;6.75;;;;;;;17.32;55.62;92674.56;5110431;28;20043;-75
2022/11/05 09:24:04;;;;;;;14.98;6.45;;;;;;;17.18;55.83;92678.75;5110054;28;20641;-76
2022/11/05 09:26:31;;;;;;;11.90;6.22;;;;;;;17.19;55.82;92672.53;5110264;28;20108;-76
2022/11/05 09:28:57;;;;;;;11.32;5.97;;;;;;;17.03;56.54;92669.97;5110443;28;20097;-75
2022/11/05 09:31:24;;;;;;;10.73;7.03;;;;;;;16.79;56.52;92633.41;5110072;28;20051;-75
2022/11/05 09:33:51;;;;;;;12.32;6.07;;;;;;;16.88;56.78;92659.56;5110375;28;20120;-76
2022/11/05 09:36:18;;;;;;;11.25;6.75;;;;;;;16.84;57.05;92654.13;5110044;28;20051;-75
2022/11/05 09:38:46;;;;;;;12.63;7.30;;;;;;;16.73;57.84;92657.78;5091929;28;20048;-76
2022/11/05 09:41:18;;;;;;;14.57;7.22;;;;;;;16.65;59.32;92662.47;5093087;28;20070;-76
2022/11/05 09:43:48;;;;;;;11.88;7.18;;;;;;;16.50;59.54;92655.47;5109043;28;20047;-75
2022/11/05 09:46:20;;;;;;;14.10;7.22;;;;;;;16.54;60.20;92664.28;5104885;28;20079;-76
2022/11/05 09:48:51;;;;;;;16.67;7.57;;;;;;;16.46;60.36;92659.63;5109370;28;20047;-76
2022/11/05 09:51:19;;;;;;;15.90;8.10;;;;;;;16.47;60.68;92671.53;5109639;28;20056;-75
2022/11/05 09:53:48;;;;;;;16.95;7.85;;;;;;;16.40;61.49;92669.19;5101586;28;20048;-75
2022/11/05 09:56:22;;;;;;;14.82;7.50;;;;;;;16.38;62.08;92657.56;5089782;28;20047;-75
2022/11/05 09:58:53;;;;;;;15.70;8.98;;;;;;;16.32;61.63;92649.00;5109400;28;20040;-75
2022/11/05 10:01:23;;;;;;;16.08;7.95;;;;;;;16.33;61.99;92654.97;5109884;28;20101;-75
2022/11/05 10:03:52;;;;;;;18.77;8.88;;;;;;;16.31;61.66;92639.66;5109769;28;20047;-75
2022/11/05 10:06:22;;;;;;;14.43;8.23;;;;;;;16.55;61.86;92659.88;5110524;28;20120;-76
2022/11/05 10:08:56;;;;;;;16.67;8.45;;;;;;;16.69;61.79;92666.09;5114108;28;20101;-76
2022/11/05 10:11:31;;;;;;;14.77;7.78;;;;;;;16.75;61.34;92656.50;5114044;28;20104;-76
2022/11/05 10:14:01;;;;;;;15.07;8.65;;;;;;;16.80;61.49;92659.06;5113382;28;20413;-75
2022/11/05 10:16:32;;;;;;;17.33;9.10;;;;;;;16.89;61.66;92661.16;5107777;28;20447;-75
2022/11/05 10:19:06;;;;;;;13.35;7.75;;;;;;;16.88;61.20;92646.59;5108943;28;20051;-74
2022/11/05 10:21:33;;;;;;;17.75;8.85;;;;;;;16.96;61.49;92651.28;5113522;28;20055;-76
2022/11/05 10:24:01;;;;;;;12.98;8.40;;;;;;;16.79;61.54;92631.59;5113077;28;20044;-76
2022/11/05 10:26:29;;;;;;;14.18;8.70;;;;;;;16.91;61.63;92653.88;5113108;28;20100;-75
2022/11/05 10:28:56;;;;;;;16.80;8.23;;;;;;;17.00;61.84;92657.50;5113336;28;20492;-76
2022/11/05 10:31:23;;;;;;;17.20;9.63;;;;;;;16.99;61.76;92647.38;5113513;28;20055;-75
2022/11/05 10:33:54;;;;;;;16.77;8.63;;;;;;;17.01;61.61;92655.66;5097593;28;20101;-76
2022/11/05 10:36:23;;;;;;;13.68;8.15;;;;;;;16.98;61.59;92646.59;5100964;28;20043;-75
2022/11/05 10:38:50;;;;;;;17.20;8.45;;;;;;;16.98;61.73;92654.38;5101338;28;20041;-75
2022/11/05 10:41:39;;;;;;;12.30;7.63;;;;;;;16.83;61.71;92635.22;5096524;28;20043;-76
2022/11/05 10:44:19;;;;;;;15.88;7.50;;;;;;;16.95;61.28;92647.91;5113066;28;20105;-75
2022/11/05 10:46:52;;;;;;;16.27;9.02;;;;;;;16.79;61.72;92636.00;5102396;28;20044;-75
2022/11/05 10:49:34;;;;;;;18.63;8.38;;;;;;;16.93;61.80;92633.63;5112988;28;20073;-75
2022/11/05 10:52:20;;;;;;;15.05;8.75;;;;;;;17.05;62.06;92633.38;5112798;28;20500;-75
2022/11/05 10:54:48;;;;;;;13.98;8.68;;;;;;;17.17;61.71;92625.31;5087576;28;20472;-75
2022/11/05 10:57:35;;;;;;;14.55;9.15;;;;;;;17.25;61.76;92626.59;5109738;28;20040;-76
2022/11/05 11:00:35;;;;;;;17.08;9.00;;;;;;;17.39;62.01;92627.56;5071714;28;20044;-76
2022/11/05 11:03:04;;;;;;;16.02;9.02;;;;;;;17.33;61.31;92593.06;5084452;28;20044;-76
2022/11/05 11:05:35;;;;;;;18.98;7.90;;;;;;;17.59;60.60;92618.13;5092472;28;20422;-76
2022/11/05 11:08:24;;;;;;;15.68;8.57;;;;;;;17.68;61.27;92613.16;5091657;28;20074;-76
2022/11/05 11:10:54;;;;;;;13.10;8.13;;;;;;;17.76;60.15;92609.97;5091550;28;20094;-76
2022/11/05 11:13:24;;;;;;;15.63;8.13;;;;;;;17.89;60.20;92614.59;5099201;28;20404;-76
2022/11/05 11:15:52;;;;;;;13.88;8.65;;;;;;;18.00;59.86;92610.09;5113932;27;20542;-76
2022/11/05 11:18:28;;;;;;;17.73;9.32;;;;;;;17.99;59.24;92608.53;5111481;28;20497;-76
2022/11/05 11:21:06;;;;;;;18.40;8.30;;;;;;;18.02;59.64;92591.63;5112751;28;20058;-76
2022/11/05 11:23:37;;;;;;;16.98;7.40;;;;;;;18.06;59.29;92584.88;5112653;28;20420;-76
2022/11/05 11:26:04;;;;;;;15.40;7.75;;;;;;;18.34;57.91;92605.19;5112547;28;20102;-75
2022/11/05 11:28:36;;;;;;;17.40;7.60;;;;;;;18.23;56.23;92605.25;5112442;28;20044;-75
2022/11/05 11:31:07;;;;;;;17.05;7.65;;;;;;;18.21;56.38;92606.59;5112597;28;20500;-75
2022/11/05 11:33:35;;;;;;;17.27;7.18;;;;;;;18.20;55.85;92600.63;5112031;28;20089;-76
2022/11/05 11:36:03;;;;;;;13.30;6.78;;;;;;;18.26;55.16;92606.53;5101672;28;20052;-76
2022/11/05 11:38:31;;;;;;;12.30;6.85;;;;;;;18.38;55.45;92603.59;5108381;28;20043;-75
2022/11/05 11:41:08;;;;;;;15.18;8.00;;;;;;;18.45;55.36;92591.06;5085753;28;20489;-76
2022/11/05 11:43:39;;;;;;;15.02;6.90;;;;;;;18.57;54.87;92601.09;5104613;28;20052;-75
2022/11/05 11:46:14;;;;;;;15.02;6.43;;;;;;;18.62;54.38;92601.06;5105491;28;20044;-75
2022/11/05 11:48:42;;;;;;;13.35;7.25;;;;;;;18.67;53.37;92601.00;5111496;28;20070;-75
2022/11/05 11:51:20;;;;;;;14.32;6.03;;;;;;;18.67;53.50;92582.00;5112142;28;20431;-75
2022/11/05 11:53:48;;;;;;;10.60;6.55;;;;;;;18.74;53.03;92592.84;5103158;28;20098;-76
2022/11/05 11:56:18;;;;;;;13.40;6.40;;;;;;;18.80;53.47;92594.34;5092245;28;20470;-75
2022/11/05 11:58:49;;;;;;;10.20;6.07;;;;;;;18.78;51.85;92590.47;5110918;28;20496;-75
2022/11/05 12:02:04;;;;;;;15.00;6.75;;;;;;;18.78;52.39;92593.09;5111852;28;20108;-75
2022/11/05 12:04:53;;;;;;;9.27;6.13;;;;;;;18.79;52.36;92592.06;5111457;28;20058;-75
2022/11/05 12:07:34;;;;;;;16.67;7.22;;;;;;;18.76;52.35;92585.56;5111691;28;20047;-75
2022/11/05 12:10:15;;;;;;;12.88;6.07;;;;;;;18.76;52.06;92584.78;5111462;28;20471;-75
2022/11/05 12:12:52;;;;;;;12.27;5.85;;;;;;;18.77;50.66;92578.53;5111548;28;20047;-75
2022/11/05 12:15:33;;;;;;;10.05;5.85;;;;;;;18.73;51.21;92586.13;5111121;28;20097;-75
2022/11/05 12:18:02;;;;;;;10.98;6.10;;;;;;;18.74;51.12;92584.28;5111375;28;20057;-75
2022/11/05 12:20:44;;;;;;;11.32;5.50;;;;;;;18.71;49.74;92585.63;5111669;28;20051;-76
2022/11/05 12:23:42;;;;;;;14.95;7.47;;;;;;;18.84;51.41;92591.97;5087538;28;20374;-76
2022/11/05 12:26:17;;;;;;;13.07;5.70;;;;;;;18.85;50.75;92592.75;5105005;28;20471;-75